createdAt,value
2018-02-24T00:01:20.560Z,-2.9
2018-02-24T00:06:15.496Z,-2.9
2018-02-24T00:11:15.300Z,-2.9
2018-02-24T00:16:15.251Z,-2.9
2018-02-24T00:21:15.495Z,-2.9
2018-02-24T00:26:15.519Z,-2.9
2018-02-24T00:31:15.325Z,-2.9
2018-02-24T00:36:15.268Z,-2.9
2018-02-24T00:41:15.530Z,-3
2018-02-24T00:46:15.341Z,-3
2018-02-24T00:51:15.478Z,-3
2018-02-24T00:56:15.329Z,-3
2018-02-24T01:01:15.556Z,-3
2018-02-24T01:06:15.465Z,-3
2018-02-24T01:11:15.506Z,-3.1
2018-02-24T01:16:15.529Z,-3.1
2018-02-24T01:21:15.457Z,-3.1
2018-02-24T01:26:15.504Z,-3.1
2018-02-24T01:31:15.566Z,-3.1
2018-02-24T01:36:15.473Z,-3.2
2018-02-24T01:41:15.521Z,-3.2
2018-02-24T01:46:15.581Z,-3.2
2018-02-24T01:51:15.592Z,-3.2
2018-02-24T01:56:15.365Z,-3.2
2018-02-24T02:01:15.547Z,-3.2
2018-02-24T02:06:15.583Z,-3.2
2018-02-24T02:11:15.503Z,-3.3
2018-02-24T02:16:15.667Z,-3.3
2018-02-24T02:21:15.678Z,-3.3
2018-02-24T02:26:15.440Z,-3.3
2018-02-24T02:31:15.646Z,-3.3
2018-02-24T02:36:15.664Z,-3.3
2018-02-24T02:41:15.606Z,-3.3
2018-02-24T02:46:15.593Z,-3.3
2018-02-24T02:51:15.678Z,-3.3
2018-02-24T02:56:15.712Z,-3.3
2018-02-24T03:01:15.627Z,-3.3
2018-02-24T03:06:15.655Z,-3.3
2018-02-24T03:11:15.741Z,-3.3
2018-02-24T03:16:15.717Z,-3.4
2018-02-24T03:21:15.653Z,-3.4
2018-02-24T03:26:15.930Z,-3.4
2018-02-24T03:31:15.627Z,-3.4
2018-02-24T03:36:15.646Z,-3.4
2018-02-24T03:41:15.654Z,-3.4
2018-02-24T03:46:15.737Z,-3.4
2018-02-24T03:51:15.664Z,-3.5
2018-02-24T03:56:16.194Z,-3.5
2018-02-24T04:01:15.689Z,-3.5
2018-02-24T04:06:15.656Z,-3.5
2018-02-24T04:11:15.703Z,-3.5
2018-02-24T04:16:16.454Z,-3.6
2018-02-24T04:21:15.662Z,-3.5
2018-02-24T04:26:15.710Z,-3.6
2018-02-24T04:31:15.537Z,-3.6
2018-02-24T04:36:16.070Z,-3.6
2018-02-24T04:41:21.306Z,-3.6
2018-02-24T04:46:16.242Z,-3.6
2018-02-24T04:51:16.073Z,-3.6
2018-02-24T04:56:16.199Z,-3.6
2018-02-24T05:01:16.192Z,-3.7
2018-02-24T05:06:16.091Z,-3.7
2018-02-24T05:11:16.337Z,-3.8
2018-02-24T05:16:16.215Z,-3.8
2018-02-24T05:21:16.283Z,-3.8
2018-02-24T05:26:16.310Z,-3.9
2018-02-24T05:31:16.456Z,-4
2018-02-24T05:36:16.271Z,-4
2018-02-24T05:41:16.233Z,-4
2018-02-24T05:46:16.270Z,-4
2018-02-24T05:51:16.482Z,-4.1
2018-02-24T05:56:16.400Z,-4.1
2018-02-24T06:01:16.559Z,-4.2
2018-02-24T06:06:16.286Z,-4.2
2018-02-24T06:11:16.514Z,-4.3
2018-02-24T06:16:16.426Z,-4.3
2018-02-24T06:21:16.594Z,-4.4
2018-02-24T06:26:16.508Z,-4.4
2018-02-24T06:31:16.412Z,-4.4
2018-02-24T06:36:16.476Z,-4.4
2018-02-24T06:41:16.285Z,-4.4
2018-02-24T06:46:16.306Z,-4.4
2018-02-24T06:51:16.302Z,-4.3
2018-02-24T06:56:16.516Z,-4.3
2018-02-24T07:01:16.530Z,-4.2
2018-02-24T07:06:16.585Z,-4.1
2018-02-24T07:11:16.568Z,-4
2018-02-24T07:16:16.527Z,-4
2018-02-24T07:21:16.573Z,-3.9
2018-02-24T07:26:16.402Z,-3.7
2018-02-24T07:31:16.531Z,-3.7
2018-02-24T07:36:16.573Z,-3.7
2018-02-24T07:41:16.617Z,-3.4
2018-02-24T07:46:16.529Z,-3.5
2018-02-24T07:51:16.415Z,-3.4
2018-02-24T07:56:16.419Z,-3.2
2018-02-24T08:01:16.552Z,-3.5
2018-02-24T08:06:16.627Z,-3.5
2018-02-24T08:11:16.554Z,-3.5
2018-02-24T08:16:16.736Z,-3.5
2018-02-24T08:21:16.602Z,-3.2
2018-02-24T08:26:16.820Z,-3.1
2018-02-24T08:31:16.612Z,-3.1
2018-02-24T08:36:16.768Z,-3.1
2018-02-24T08:41:16.817Z,-3
2018-02-24T08:46:16.727Z,-2.7
2018-02-24T08:51:16.820Z,-3
2018-02-24T08:56:16.904Z,-2.8
2018-02-24T09:01:16.842Z,-2.8
2018-02-24T09:06:16.744Z,-2.7
2018-02-24T09:11:16.744Z,-2.5
2018-02-24T09:16:16.838Z,-2.4
2018-02-24T09:21:16.886Z,-2.6
2018-02-24T09:26:16.625Z,-2.1
2018-02-24T09:31:19.687Z,-2.3
2018-02-24T09:36:24.879Z,-1.9
2018-02-24T09:41:19.689Z,-2.1
2018-02-24T09:46:20.124Z,-1.7
2018-02-24T09:51:19.941Z,-1.8
2018-02-24T09:56:21.105Z,-1.6
2018-02-24T10:01:20.100Z,-1.5
2018-02-24T10:06:20.158Z,-0.9
2018-02-24T10:11:21.117Z,-0.8
2018-02-24T10:16:20.096Z,-0.9
2018-02-24T10:21:19.956Z,-1
2018-02-24T10:26:20.185Z,-1.1
2018-02-24T10:31:19.966Z,-1.1
2018-02-24T10:36:19.965Z,-0.9
2018-02-24T10:41:20.189Z,-1
2018-02-24T10:46:20.219Z,-1.1
2018-02-24T10:51:19.984Z,-0.8
2018-02-24T10:56:20.190Z,-0.8
2018-02-24T11:01:19.984Z,-0.7
2018-02-24T11:06:20.142Z,-0.8
2018-02-24T11:11:20.177Z,-0.6
2018-02-24T11:16:20.220Z,-0.7
2018-02-24T11:21:20.134Z,-0.7
2018-02-24T11:26:20.175Z,-0.8
2018-02-24T11:31:20.305Z,-0.4
2018-02-24T11:36:20.332Z,-0.3
2018-02-24T11:41:20.439Z,-0.5
2018-02-24T11:46:20.140Z,-0.4
2018-02-24T11:51:20.341Z,-0.1
2018-02-24T11:56:20.380Z,-0.4
2018-02-24T12:01:20.200Z,-0.1
2018-02-24T12:06:20.335Z,0
2018-02-24T12:11:20.404Z,0
2018-02-24T12:16:20.416Z,0.1
2018-02-24T12:21:20.290Z,0
2018-02-24T12:26:20.296Z,0
2018-02-24T12:31:20.287Z,0.3
2018-02-24T12:36:20.465Z,0.3
2018-02-24T12:41:20.549Z,0.4
2018-02-24T12:46:20.627Z,0
2018-02-24T12:51:20.871Z,0.1
2018-02-24T12:56:20.911Z,0.1
2018-02-24T13:01:20.985Z,0.2
2018-02-24T13:06:20.664Z,0.2
2018-02-24T13:11:20.743Z,0.3
2018-02-24T13:16:20.714Z,0.2
2018-02-24T13:21:20.841Z,0.3
2018-02-24T13:26:20.906Z,0.3
2018-02-24T13:31:20.927Z,0.3
2018-02-24T13:36:20.863Z,0.3
2018-02-24T13:41:20.719Z,0.2
2018-02-24T13:46:20.928Z,0.3
2018-02-24T13:51:21.005Z,0.5
2018-02-24T13:56:20.988Z,0.5
2018-02-24T14:01:20.906Z,0.2
2018-02-24T14:06:20.989Z,0.1
2018-02-24T14:11:20.868Z,0.3
2018-02-24T14:16:20.920Z,0.4
2018-02-24T14:21:23.392Z,0.5
2018-02-24T14:26:28.351Z,0.4
2018-02-24T14:31:23.254Z,0.3
2018-02-24T14:36:23.295Z,0.7
2018-02-24T14:41:23.222Z,0.5
2018-02-24T14:46:23.213Z,0.3
2018-02-24T14:51:23.256Z,0.2
2018-02-24T14:56:23.364Z,0.2
2018-02-24T15:01:23.246Z,0.1
2018-02-24T15:06:23.620Z,0
2018-02-24T15:11:23.605Z,0
2018-02-24T15:16:23.560Z,0
2018-02-24T15:21:23.348Z,-0.1
2018-02-24T15:26:23.539Z,-0.2
2018-02-24T15:31:23.369Z,-0.3
2018-02-24T15:36:23.563Z,-0.3
2018-02-24T15:41:23.543Z,-0.3
2018-02-24T15:46:23.608Z,-0.4
2018-02-24T15:51:23.363Z,-0.4
2018-02-24T15:56:23.360Z,-0.5
2018-02-24T16:01:23.576Z,-0.6
2018-02-24T16:06:23.606Z,-0.7
2018-02-24T16:11:23.550Z,-0.8
2018-02-24T16:16:23.629Z,-0.8
2018-02-24T16:21:23.617Z,-0.9
2018-02-24T16:26:23.549Z,-0.9
2018-02-24T16:31:23.577Z,-1
2018-02-24T16:36:23.616Z,-1
2018-02-24T16:41:23.663Z,-1.1
2018-02-24T16:46:23.578Z,-1.1
2018-02-24T16:51:23.632Z,-1.1
2018-02-24T16:56:23.541Z,-1.2
2018-02-24T17:01:23.557Z,-1.2
2018-02-24T17:06:23.556Z,-1.3
2018-02-24T17:11:23.538Z,-1.2
2018-02-24T17:16:23.559Z,-1.3
2018-02-24T17:21:23.595Z,-1.3
2018-02-24T17:26:23.639Z,-1.4
2018-02-24T17:31:23.576Z,-1.4
2018-02-24T17:36:23.590Z,-1.5
2018-02-24T17:41:23.641Z,-1.5
2018-02-24T17:46:23.583Z,-1.6
2018-02-24T17:51:23.587Z,-1.7
2018-02-24T17:56:23.633Z,-1.7
2018-02-24T18:01:23.705Z,-1.8
2018-02-24T18:06:23.540Z,-1.8
2018-02-24T18:11:23.522Z,-1.9
2018-02-24T18:16:23.591Z,-2
2018-02-24T18:21:23.466Z,-2.1
2018-02-24T18:26:23.464Z,-2.2
2018-02-24T18:31:23.442Z,-2.3
2018-02-24T18:36:23.466Z,-2.4
2018-02-24T18:41:23.458Z,-2.5
2018-02-24T18:46:23.462Z,-2.7
2018-02-24T18:51:23.475Z,-2.9
2018-02-24T18:56:23.473Z,-3.1
2018-02-24T19:01:23.486Z,-3.1
2018-02-24T19:06:23.625Z,-3.3
2018-02-24T19:11:23.458Z,-3.3
2018-02-24T19:16:27.111Z,-3.4
2018-02-24T19:21:32.407Z,-3.5
2018-02-24T19:26:27.301Z,-3.5
2018-02-24T19:31:27.344Z,-3.5
2018-02-24T19:36:27.287Z,-3.6
2018-02-24T19:41:27.322Z,-3.7
2018-02-24T19:46:27.244Z,-3.7
2018-02-24T19:51:27.283Z,-3.7
2018-02-24T19:56:27.334Z,-3.9
2018-02-24T20:01:27.351Z,-3.9
2018-02-24T20:06:27.276Z,-3.9
2018-02-24T20:11:27.307Z,-4
2018-02-24T20:16:27.136Z,-4.1
2018-02-24T20:21:27.140Z,-4
2018-02-24T20:26:27.310Z,-4.1
2018-02-24T20:31:27.433Z,-4.2
2018-02-24T20:36:27.474Z,-4.1
2018-02-24T20:41:27.501Z,-4.3
2018-02-24T20:46:27.643Z,-4.2
2018-02-24T20:51:27.908Z,-4.3
2018-02-24T20:56:27.934Z,-4.3
2018-02-24T21:01:28.174Z,-4.4
2018-02-24T21:06:28.084Z,-4.4
2018-02-24T21:11:27.995Z,-4.5
2018-02-24T21:16:28.181Z,-4.5
2018-02-24T21:21:28.254Z,-4.6
2018-02-24T21:26:28.448Z,-4.6
2018-02-24T21:31:28.672Z,-4.7
2018-02-24T21:36:28.797Z,-4.8
2018-02-24T21:41:28.718Z,-4.9
2018-02-24T21:46:28.865Z,-4.9
2018-02-24T21:51:29.128Z,-5
2018-02-24T21:56:29.169Z,-5
2018-02-24T22:01:29.203Z,-5
2018-02-24T22:06:29.170Z,-5.1
2018-02-24T22:11:29.193Z,-5.2
2018-02-24T22:16:29.175Z,-5.3
2018-02-24T22:21:29.185Z,-5.4
2018-02-24T22:26:29.188Z,-5.4
2018-02-24T22:31:29.423Z,-5.5
2018-02-24T22:36:29.318Z,-5.5
2018-02-24T22:41:29.360Z,-5.5
2018-02-24T22:46:29.204Z,-5.6
2018-02-24T22:51:29.225Z,-5.7
2018-02-24T22:56:29.220Z,-5.7
2018-02-24T23:01:29.184Z,-5.8
2018-02-24T23:06:29.211Z,-5.8
2018-02-24T23:11:29.343Z,-5.8
2018-02-24T23:16:29.210Z,-5.9
2018-02-24T23:21:29.227Z,-5.9
2018-02-24T23:26:29.216Z,-6
2018-02-24T23:31:29.225Z,-6
2018-02-24T23:36:29.223Z,-6
2018-02-24T23:41:29.246Z,-6
2018-02-24T23:46:29.240Z,-6
2018-02-24T23:51:29.419Z,-6.1
2018-02-24T23:56:29.476Z,-6.1
